Camperville, Canada
Current Conditions -  °F | °C
As of 11:00 AM on Saturday 20 Dec 2014 (Local Time) from CYDN Reporting Station
Overcast Overcast  
Wind Chill: 17°   Ceiling: 1400
Heat Index: 23°   Visibility: 9mi
Dew Point: 19°   Wind: 5mph
Humidity: 86%   Direction: 110°ESE
Pressure: 29.93"   Gusts: NA
Location:  52.02°N, 100.15°W
Report Text: CYDN 201700Z AUTO 11004KT 9SM OVC014 M05/M07 A2993 RMK SLP154
Loading
Personal Weather Stations






























Interactive Weather Map New forecast layout! Learn more

10-Day Weather Forecast

Advertisements
Track Severe Weather on mobile